sensor_id;sensor_type;location;lat;lon;timestamp;temperature;humidity
14877;DHT22;69691;48.172;17.070;2023-05-07T00:00:04;14.80;98.80
14877;DHT22;69691;48.172;17.070;2023-05-07T00:02:34;14.80;98.80
14877;DHT22;69691;48.172;17.070;2023-05-07T00:05:01;14.70;98.70
14877;DHT22;69691;48.172;17.070;2023-05-07T00:07:28;14.70;98.90
14877;DHT22;69691;48.172;17.070;2023-05-07T00:09:53;14.70;99.00
14877;DHT22;69691;48.172;17.070;2023-05-07T00:12:20;14.60;98.90
14877;DHT22;69691;48.172;17.070;2023-05-07T00:14:45;14.60;99.10
14877;DHT22;69691;48.172;17.070;2023-05-07T00:17:11;14.60;99.00
14877;DHT22;69691;48.172;17.070;2023-05-07T00:19:37;14.60;98.90
14877;DHT22;69691;48.172;17.070;2023-05-07T00:22:03;14.50;98.90
14877;DHT22;69691;48.172;17.070;2023-05-07T00:24:29;14.50;99.00
14877;DHT22;69691;48.172;17.070;2023-05-07T00:26:55;14.50;99.00
14877;DHT22;69691;48.172;17.070;2023-05-07T00:29:20;14.50;99.00
14877;DHT22;69691;48.172;17.070;2023-05-07T00:31:46;14.40;99.00
14877;DHT22;69691;48.172;17.070;2023-05-07T00:34:14;14.40;99.00
14877;DHT22;69691;48.172;17.070;2023-05-07T00:36:40;14.40;99.00
14877;DHT22;69691;48.172;17.070;2023-05-07T00:39:06;14.40;99.20
14877;DHT22;69691;48.172;17.070;2023-05-07T00:41:32;14.30;99.10
14877;DHT22;69691;48.172;17.070;2023-05-07T00:43:58;14.30;99.20
14877;DHT22;69691;48.172;17.070;2023-05-07T00:46:24;14.30;99.10
14877;DHT22;69691;48.172;17.070;2023-05-07T00:48:51;14.30;99.10
14877;DHT22;69691;48.172;17.070;2023-05-07T00:51:17;14.20;99.00
14877;DHT22;69691;48.172;17.070;2023-05-07T00:53:44;14.20;99.00
14877;DHT22;69691;48.172;17.070;2023-05-07T00:56:10;14.20;99.00
14877;DHT22;69691;48.172;17.070;2023-05-07T00:58:36;14.20;99.10
14877;DHT22;69691;48.172;17.070;2023-05-07T01:01:03;14.20;99.10
14877;DHT22;69691;48.172;17.070;2023-05-07T01:03:29;14.20;99.20
14877;DHT22;69691;48.172;17.070;2023-05-07T01:05:57;14.10;99.30
14877;DHT22;69691;48.172;17.070;2023-05-07T01:08:24;14.20;99.50
14877;DHT22;69691;48.172;17.070;2023-05-07T01:10:52;14.20;99.40
14877;DHT22;69691;48.172;17.070;2023-05-07T01:13:19;14.20;99.50
14877;DHT22;69691;48.172;17.070;2023-05-07T01:15:46;14.20;99.60
14877;DHT22;69691;48.172;17.070;2023-05-07T01:18:13;14.20;99.50
14877;DHT22;69691;48.172;17.070;2023-05-07T01:20:39;14.20;99.50
14877;DHT22;69691;48.172;17.070;2023-05-07T01:23:06;14.20;99.50
14877;DHT22;69691;48.172;17.070;2023-05-07T01:25:32;14.20;99.60
14877;DHT22;69691;48.172;17.070;2023-05-07T01:28:00;14.20;99.70
14877;DHT22;69691;48.172;17.070;2023-05-07T01:30:29;14.20;99.80
14877;DHT22;69691;48.172;17.070;2023-05-07T01:33:04;14.30;99.90
14877;DHT22;69691;48.172;17.070;2023-05-07T01:35:41;14.30;99.90
14877;DHT22;69691;48.172;17.070;2023-05-07T01:38:10;14.40;99.90
14877;DHT22;69691;48.172;17.070;2023-05-07T01:40:37;14.40;99.90
14877;DHT22;69691;48.172;17.070;2023-05-07T01:43:03;14.50;99.90
14877;DHT22;69691;48.172;17.070;2023-05-07T01:45:32;14.50;99.90
14877;DHT22;69691;48.172;17.070;2023-05-07T01:47:59;14.60;99.90
14877;DHT22;69691;48.172;17.070;2023-05-07T01:50:27;14.70;99.90
14877;DHT22;69691;48.172;17.070;2023-05-07T01:52:53;14.70;99.90
14877;DHT22;69691;48.172;17.070;2023-05-07T01:55:19;14.80;99.90
14877;DHT22;69691;48.172;17.070;2023-05-07T01:57:45;14.80;99.90
14877;DHT22;69691;48.172;17.070;2023-05-07T02:00:11;14.80;99.90
14877;DHT22;69691;48.172;17.070;2023-05-07T02:02:41;14.80;99.90
14877;DHT22;69691;48.172;17.070;2023-05-07T02:05:15;14.80;99.90
14877;DHT22;69691;48.172;17.070;2023-05-07T02:07:42;14.80;99.90
14877;DHT22;69691;48.172;17.070;2023-05-07T02:10:08;14.80;99.90
14877;DHT22;69691;48.172;17.070;2023-05-07T02:12:35;14.80;99.90
14877;DHT22;69691;48.172;17.070;2023-05-07T02:15:00;14.90;99.90
14877;DHT22;69691;48.172;17.070;2023-05-07T02:17:27;14.90;99.90
14877;DHT22;69691;48.172;17.070;2023-05-07T02:19:53;14.90;99.90
14877;DHT22;69691;48.172;17.070;2023-05-07T02:22:18;15.00;99.90
14877;DHT22;69691;48.172;17.070;2023-05-07T02:24:44;15.00;99.90
14877;DHT22;69691;48.172;17.070;2023-05-07T02:27:10;15.10;99.90
14877;DHT22;69691;48.172;17.070;2023-05-07T02:29:37;15.10;99.90
14877;DHT22;69691;48.172;17.070;2023-05-07T02:32:03;15.20;99.90
14877;DHT22;69691;48.172;17.070;2023-05-07T02:34:29;15.20;99.90
14877;DHT22;69691;48.172;17.070;2023-05-07T02:36:54;15.20;99.90
14877;DHT22;69691;48.172;17.070;2023-05-07T02:39:23;15.10;99.70
14877;DHT22;69691;48.172;17.070;2023-05-07T02:41:49;15.00;99.70
14877;DHT22;69691;48.172;17.070;2023-05-07T02:44:15;15.00;99.70
14877;DHT22;69691;48.172;17.070;2023-05-07T02:46:41;15.00;99.70
14877;DHT22;69691;48.172;17.070;2023-05-07T02:49:10;14.90;99.70
14877;DHT22;69691;48.172;17.070;2023-05-07T02:51:36;14.90;99.90
14877;DHT22;69691;48.172;17.070;2023-05-07T02:54:06;14.90;99.90
14877;DHT22;69691;48.172;17.070;2023-05-07T02:56:32;14.90;99.90
14877;DHT22;69691;48.172;17.070;2023-05-07T02:58:58;14.90;99.90
14877;DHT22;69691;48.172;17.070;2023-05-07T03:01:28;14.90;99.90
14877;DHT22;69691;48.172;17.070;2023-05-07T03:04:01;14.90;99.70
14877;DHT22;69691;48.172;17.070;2023-05-07T03:06:27;14.90;99.60
14877;DHT22;69691;48.172;17.070;2023-05-07T03:08:53;14.80;99.50
14877;DHT22;69691;48.172;17.070;2023-05-07T03:11:19;14.80;99.50
14877;DHT22;69691;48.172;17.070;2023-05-07T03:13:45;14.80;99.50
14877;DHT22;69691;48.172;17.070;2023-05-07T03:16:11;14.70;99.40
14877;DHT22;69691;48.172;17.070;2023-05-07T03:18:37;14.60;99.50
14877;DHT22;69691;48.172;17.070;2023-05-07T03:21:03;14.60;99.50
14877;DHT22;69691;48.172;17.070;2023-05-07T03:23:29;14.60;99.90
14877;DHT22;69691;48.172;17.070;2023-05-07T03:25:55;14.60;99.70
14877;DHT22;69691;48.172;17.070;2023-05-07T03:28:21;14.60;99.80
14877;DHT22;69691;48.172;17.070;2023-05-07T03:30:52;14.60;99.90
14877;DHT22;69691;48.172;17.070;2023-05-07T03:33:18;14.70;99.90
14877;DHT22;69691;48.172;17.070;2023-05-07T03:35:44;14.70;99.80
14877;DHT22;69691;48.172;17.070;2023-05-07T03:38:12;14.80;99.80
14877;DHT22;69691;48.172;17.070;2023-05-07T03:40:38;14.80;99.50
14877;DHT22;69691;48.172;17.070;2023-05-07T03:43:04;14.80;99.60
14877;DHT22;69691;48.172;17.070;2023-05-07T03:45:32;14.80;99.50
14877;DHT22;69691;48.172;17.070;2023-05-07T03:48:09;14.90;99.40
14877;DHT22;69691;48.172;17.070;2023-05-07T03:50:35;14.90;99.30
14877;DHT22;69691;48.172;17.070;2023-05-07T03:53:01;14.90;99.20
14877;DHT22;69691;48.172;17.070;2023-05-07T03:55:29;15.00;98.90
14877;DHT22;69691;48.172;17.070;2023-05-07T03:57:58;15.00;98.70
14877;DHT22;69691;48.172;17.070;2023-05-07T04:00:26;15.00;98.80
14877;DHT22;69691;48.172;17.070;2023-05-07T04:02:52;15.00;98.50
14877;DHT22;69691;48.172;17.070;2023-05-07T04:05:24;15.00;98.70
14877;DHT22;69691;48.172;17.070;2023-05-07T04:07:55;15.00;98.20
14877;DHT22;69691;48.172;17.070;2023-05-07T04:10:28;15.00;98.10
14877;DHT22;69691;48.172;17.070;2023-05-07T04:12:56;15.00;98.00
14877;DHT22;69691;48.172;17.070;2023-05-07T04:15:24;15.10;97.90
14877;DHT22;69691;48.172;17.070;2023-05-07T04:17:50;15.20;97.80
14877;DHT22;69691;48.172;17.070;2023-05-07T04:20:18;15.20;97.70
14877;DHT22;69691;48.172;17.070;2023-05-07T04:22:49;15.30;97.50
14877;DHT22;69691;48.172;17.070;2023-05-07T04:25:16;15.30;97.30
14877;DHT22;69691;48.172;17.070;2023-05-07T04:27:42;15.30;97.20
14877;DHT22;69691;48.172;17.070;2023-05-07T04:30:08;15.30;96.80
14877;DHT22;69691;48.172;17.070;2023-05-07T04:32:38;15.30;96.60
14877;DHT22;69691;48.172;17.070;2023-05-07T04:35:05;15.30;96.60
14877;DHT22;69691;48.172;17.070;2023-05-07T04:37:34;15.40;96.60
14877;DHT22;69691;48.172;17.070;2023-05-07T04:40:01;15.40;96.30
14877;DHT22;69691;48.172;17.070;2023-05-07T04:42:28;15.50;96.10
14877;DHT22;69691;48.172;17.070;2023-05-07T04:44:55;15.50;96.00
14877;DHT22;69691;48.172;17.070;2023-05-07T04:47:22;15.50;96.00
14877;DHT22;69691;48.172;17.070;2023-05-07T04:49:49;15.50;96.10
14877;DHT22;69691;48.172;17.070;2023-05-07T04:52:15;15.60;96.20
14877;DHT22;69691;48.172;17.070;2023-05-07T04:54:41;15.60;95.90
14877;DHT22;69691;48.172;17.070;2023-05-07T04:57:07;15.60;95.90
14877;DHT22;69691;48.172;17.070;2023-05-07T04:59:34;15.70;95.90
14877;DHT22;69691;48.172;17.070;2023-05-07T05:01:59;15.80;95.70
14877;DHT22;69691;48.172;17.070;2023-05-07T05:04:25;15.90;95.40
14877;DHT22;69691;48.172;17.070;2023-05-07T05:06:52;16.00;95.50
14877;DHT22;69691;48.172;17.070;2023-05-07T05:09:18;16.10;95.20
14877;DHT22;69691;48.172;17.070;2023-05-07T05:11:45;16.20;95.00
14877;DHT22;69691;48.172;17.070;2023-05-07T05:14:11;16.20;95.10
14877;DHT22;69691;48.172;17.070;2023-05-07T05:16:36;16.40;95.00
14877;DHT22;69691;48.172;17.070;2023-05-07T05:19:02;16.50;94.40
14877;DHT22;69691;48.172;17.070;2023-05-07T05:21:32;16.40;94.10
14877;DHT22;69691;48.172;17.070;2023-05-07T05:24:04;16.40;93.90
14877;DHT22;69691;48.172;17.070;2023-05-07T05:26:30;16.50;94.00
14877;DHT22;69691;48.172;17.070;2023-05-07T05:28:57;16.60;93.90
14877;DHT22;69691;48.172;17.070;2023-05-07T05:31:24;16.80;93.50
14877;DHT22;69691;48.172;17.070;2023-05-07T05:33:51;16.90;93.10
14877;DHT22;69691;48.172;17.070;2023-05-07T05:36:17;16.90;92.90
14877;DHT22;69691;48.172;17.070;2023-05-07T05:38:44;17.00;92.70
14877;DHT22;69691;48.172;17.070;2023-05-07T05:41:11;17.00;92.90
14877;DHT22;69691;48.172;17.070;2023-05-07T05:43:37;17.00;92.90
14877;DHT22;69691;48.172;17.070;2023-05-07T05:46:03;17.00;93.00
14877;DHT22;69691;48.172;17.070;2023-05-07T05:48:30;17.00;92.70
14877;DHT22;69691;48.172;17.070;2023-05-07T05:50:56;16.90;92.60
14877;DHT22;69691;48.172;17.070;2023-05-07T05:53:23;16.90;92.70
14877;DHT22;69691;48.172;17.070;2023-05-07T05:55:49;16.90;92.80
14877;DHT22;69691;48.172;17.070;2023-05-07T05:58:16;16.90;92.70
14877;DHT22;69691;48.172;17.070;2023-05-07T06:00:48;16.90;92.90
14877;DHT22;69691;48.172;17.070;2023-05-07T06:03:15;16.90;93.10
14877;DHT22;69691;48.172;17.070;2023-05-07T06:05:42;16.90;92.80
14877;DHT22;69691;48.172;17.070;2023-05-07T06:08:07;16.80;92.90
14877;DHT22;69691;48.172;17.070;2023-05-07T06:10:36;16.80;93.10
14877;DHT22;69691;48.172;17.070;2023-05-07T06:13:03;16.90;93.10
14877;DHT22;69691;48.172;17.070;2023-05-07T06:15:30;17.00;92.80
14877;DHT22;69691;48.172;17.070;2023-05-07T06:18:01;17.20;92.40
14877;DHT22;69691;48.172;17.070;2023-05-07T06:20:27;17.30;92.10
14877;DHT22;69691;48.172;17.070;2023-05-07T06:22:53;17.50;91.90
14877;DHT22;69691;48.172;17.070;2023-05-07T06:25:19;17.60;91.50
14877;DHT22;69691;48.172;17.070;2023-05-07T06:27:45;17.80;90.90
14877;DHT22;69691;48.172;17.070;2023-05-07T06:30:11;17.90;90.70
14877;DHT22;69691;48.172;17.070;2023-05-07T06:32:37;18.10;90.30
14877;DHT22;69691;48.172;17.070;2023-05-07T06:35:03;18.50;89.50
14877;DHT22;69691;48.172;17.070;2023-05-07T06:37:29;18.90;88.20
14877;DHT22;69691;48.172;17.070;2023-05-07T06:40:00;19.30;85.90
14877;DHT22;69691;48.172;17.070;2023-05-07T06:42:27;19.40;84.00
14877;DHT22;69691;48.172;17.070;2023-05-07T06:44:57;19.60;82.70
14877;DHT22;69691;48.172;17.070;2023-05-07T06:47:23;19.70;81.80
14877;DHT22;69691;48.172;17.070;2023-05-07T06:49:52;19.90;80.30
14877;DHT22;69691;48.172;17.070;2023-05-07T06:52:23;19.90;79.50
14877;DHT22;69691;48.172;17.070;2023-05-07T06:54:50;19.80;79.00
14877;DHT22;69691;48.172;17.070;2023-05-07T06:57:18;19.80;78.10
14877;DHT22;69691;48.172;17.070;2023-05-07T06:59:44;19.80;78.20
14877;DHT22;69691;48.172;17.070;2023-05-07T07:02:11;19.90;77.50
14877;DHT22;69691;48.172;17.070;2023-05-07T07:04:37;19.90;77.40
14877;DHT22;69691;48.172;17.070;2023-05-07T07:07:07;20.00;77.20
14877;DHT22;69691;48.172;17.070;2023-05-07T07:09:35;20.00;77.10
14877;DHT22;69691;48.172;17.070;2023-05-07T07:12:02;20.00;77.00
14877;DHT22;69691;48.172;17.070;2023-05-07T07:14:30;19.90;77.40
14877;DHT22;69691;48.172;17.070;2023-05-07T07:16:56;19.80;77.50
14877;DHT22;69691;48.172;17.070;2023-05-07T07:19:23;19.60;77.80
14877;DHT22;69691;48.172;17.070;2023-05-07T07:21:52;19.60;78.10
14877;DHT22;69691;48.172;17.070;2023-05-07T07:24:18;19.60;78.10
14877;DHT22;69691;48.172;17.070;2023-05-07T07:26:48;19.70;78.60
14877;DHT22;69691;48.172;17.070;2023-05-07T07:29:14;19.90;77.80
14877;DHT22;69691;48.172;17.070;2023-05-07T07:31:42;20.00;76.90
14877;DHT22;69691;48.172;17.070;2023-05-07T07:34:08;20.10;76.70
14877;DHT22;69691;48.172;17.070;2023-05-07T07:36:34;20.20;76.40
14877;DHT22;69691;48.172;17.070;2023-05-07T07:39:00;20.30;75.90
14877;DHT22;69691;48.172;17.070;2023-05-07T07:41:26;20.50;76.00
14877;DHT22;69691;48.172;17.070;2023-05-07T07:43:52;20.90;74.20
14877;DHT22;69691;48.172;17.070;2023-05-07T07:46:20;21.30;73.20
14877;DHT22;69691;48.172;17.070;2023-05-07T07:48:45;21.70;71.60
14877;DHT22;69691;48.172;17.070;2023-05-07T07:51:12;22.00;69.10
14877;DHT22;69691;48.172;17.070;2023-05-07T07:53:38;22.10;68.40
14877;DHT22;69691;48.172;17.070;2023-05-07T07:56:04;22.20;68.40
14877;DHT22;69691;48.172;17.070;2023-05-07T07:58:32;22.60;66.80
14877;DHT22;69691;48.172;17.070;2023-05-07T08:00:59;22.70;65.30
14877;DHT22;69691;48.172;17.070;2023-05-07T08:03:25;22.80;64.80
14877;DHT22;69691;48.172;17.070;2023-05-07T08:05:56;23.00;64.10
14877;DHT22;69691;48.172;17.070;2023-05-07T08:08:22;23.10;63.30
14877;DHT22;69691;48.172;17.070;2023-05-07T08:10:49;23.20;62.40
14877;DHT22;69691;48.172;17.070;2023-05-07T08:13:23;23.20;62.20
14877;DHT22;69691;48.172;17.070;2023-05-07T08:15:49;23.30;61.40
14877;DHT22;69691;48.172;17.070;2023-05-07T08:18:15;23.10;60.90
14877;DHT22;69691;48.172;17.070;2023-05-07T08:20:42;22.90;61.60
14877;DHT22;69691;48.172;17.070;2023-05-07T08:23:13;22.80;61.80
14877;DHT22;69691;48.172;17.070;2023-05-07T08:25:42;22.80;62.10
14877;DHT22;69691;48.172;17.070;2023-05-07T08:28:08;23.00;61.60
14877;DHT22;69691;48.172;17.070;2023-05-07T08:30:35;23.10;60.30
14877;DHT22;69691;48.172;17.070;2023-05-07T08:33:01;23.20;59.90
14877;DHT22;69691;48.172;17.070;2023-05-07T08:35:26;23.20;59.40
14877;DHT22;69691;48.172;17.070;2023-05-07T08:37:54;23.20;59.50
14877;DHT22;69691;48.172;17.070;2023-05-07T08:40:24;23.10;59.50
14877;DHT22;69691;48.172;17.070;2023-05-07T08:42:52;22.70;59.50
14877;DHT22;69691;48.172;17.070;2023-05-07T08:45:20;22.40;60.90
14877;DHT22;69691;48.172;17.070;2023-05-07T08:48:01;22.50;61.00
14877;DHT22;69691;48.172;17.070;2023-05-07T08:50:35;22.40;60.90
14877;DHT22;69691;48.172;17.070;2023-05-07T08:53:03;22.40;61.50
14877;DHT22;69691;48.172;17.070;2023-05-07T08:55:30;22.50;61.20
14877;DHT22;69691;48.172;17.070;2023-05-07T08:57:56;22.70;61.10
14877;DHT22;69691;48.172;17.070;2023-05-07T09:00:22;23.10;60.40
14877;DHT22;69691;48.172;17.070;2023-05-07T09:02:51;23.20;59.30
14877;DHT22;69691;48.172;17.070;2023-05-07T09:05:18;23.50;59.00
14877;DHT22;69691;48.172;17.070;2023-05-07T09:07:45;23.70;58.30
14877;DHT22;69691;48.172;17.070;2023-05-07T09:10:13;23.90;57.90
14877;DHT22;69691;48.172;17.070;2023-05-07T09:12:41;24.20;56.90
14877;DHT22;69691;48.172;17.070;2023-05-07T09:15:09;24.30;56.50
14877;DHT22;69691;48.172;17.070;2023-05-07T09:17:35;24.50;55.50
14877;DHT22;69691;48.172;17.070;2023-05-07T09:20:03;24.60;54.80
14877;DHT22;69691;48.172;17.070;2023-05-07T09:22:36;24.70;53.90
14877;DHT22;69691;48.172;17.070;2023-05-07T09:25:06;24.50;53.50
14877;DHT22;69691;48.172;17.070;2023-05-07T09:27:33;24.10;53.90
14877;DHT22;69691;48.172;17.070;2023-05-07T09:30:00;23.70;54.70
14877;DHT22;69691;48.172;17.070;2023-05-07T09:32:29;23.50;54.80
14877;DHT22;69691;48.172;17.070;2023-05-07T09:34:57;23.40;55.70
14877;DHT22;69691;48.172;17.070;2023-05-07T09:37:25;23.30;55.50
14877;DHT22;69691;48.172;17.070;2023-05-07T09:39:51;23.30;54.90
14877;DHT22;69691;48.172;17.070;2023-05-07T09:42:24;23.20;54.80
14877;DHT22;69691;48.172;17.070;2023-05-07T09:44:53;23.10;54.70
14877;DHT22;69691;48.172;17.070;2023-05-07T09:47:24;23.20;54.80
14877;DHT22;69691;48.172;17.070;2023-05-07T09:49:56;23.20;54.90
14877;DHT22;69691;48.172;17.070;2023-05-07T09:52:24;23.30;54.90
14877;DHT22;69691;48.172;17.070;2023-05-07T09:54:54;23.20;54.80
14877;DHT22;69691;48.172;17.070;2023-05-07T09:57:24;23.20;54.30
14877;DHT22;69691;48.172;17.070;2023-05-07T09:59:56;23.10;54.00
14877;DHT22;69691;48.172;17.070;2023-05-07T10:02:25;22.90;54.10
14877;DHT22;69691;48.172;17.070;2023-05-07T10:04:54;22.90;54.60
14877;DHT22;69691;48.172;17.070;2023-05-07T10:07:25;22.90;54.30
14877;DHT22;69691;48.172;17.070;2023-05-07T10:09:55;23.00;54.50
14877;DHT22;69691;48.172;17.070;2023-05-07T10:12:30;23.10;54.10
14877;DHT22;69691;48.172;17.070;2023-05-07T10:15:07;23.20;54.00
14877;DHT22;69691;48.172;17.070;2023-05-07T10:17:37;23.30;53.70
14877;DHT22;69691;48.172;17.070;2023-05-07T10:20:05;23.30;53.20
14877;DHT22;69691;48.172;17.070;2023-05-07T10:22:43;23.20;53.50
14877;DHT22;69691;48.172;17.070;2023-05-07T10:25:19;23.10;54.00
14877;DHT22;69691;48.172;17.070;2023-05-07T10:27:48;22.90;53.70
14877;DHT22;69691;48.172;17.070;2023-05-07T10:30:25;22.90;54.00
14877;DHT22;69691;48.172;17.070;2023-05-07T10:32:56;22.90;54.50
14877;DHT22;69691;48.172;17.070;2023-05-07T10:35:38;23.10;53.60
14877;DHT22;69691;48.172;17.070;2023-05-07T10:38:08;23.00;53.10
14877;DHT22;69691;48.172;17.070;2023-05-07T10:40:36;22.80;53.30
14877;DHT22;69691;48.172;17.070;2023-05-07T10:43:04;22.70;53.20
14877;DHT22;69691;48.172;17.070;2023-05-07T10:45:37;22.70;53.50
14877;DHT22;69691;48.172;17.070;2023-05-07T10:48:17;22.70;53.20
14877;DHT22;69691;48.172;17.070;2023-05-07T10:50:49;22.60;53.30
14877;DHT22;69691;48.172;17.070;2023-05-07T10:53:46;22.50;53.30
14877;DHT22;69691;48.172;17.070;2023-05-07T10:58:49;22.40;53.00
14877;DHT22;69691;48.172;17.070;2023-05-07T11:01:55;22.40;52.60
14877;DHT22;69691;48.172;17.070;2023-05-07T11:05:19;22.40;52.60
14877;DHT22;69691;48.172;17.070;2023-05-07T11:08:09;22.30;52.50
14877;DHT22;69691;48.172;17.070;2023-05-07T11:10:52;22.10;52.20
14877;DHT22;69691;48.172;17.070;2023-05-07T11:13:46;22.20;52.10
14877;DHT22;69691;48.172;17.070;2023-05-07T11:16:23;22.20;51.90
14877;DHT22;69691;48.172;17.070;2023-05-07T11:18:57;22.30;51.80
14877;DHT22;69691;48.172;17.070;2023-05-07T11:21:38;22.20;51.60
14877;DHT22;69691;48.172;17.070;2023-05-07T11:24:21;22.20;51.80
14877;DHT22;69691;48.172;17.070;2023-05-07T11:27:00;22.20;51.60
14877;DHT22;69691;48.172;17.070;2023-05-07T11:29:27;22.20;51.00
14877;DHT22;69691;48.172;17.070;2023-05-07T11:31:59;22.30;51.00
14877;DHT22;69691;48.172;17.070;2023-05-07T11:34:29;22.20;51.00
14877;DHT22;69691;48.172;17.070;2023-05-07T11:36:58;22.30;50.90
14877;DHT22;69691;48.172;17.070;2023-05-07T11:39:37;22.20;50.90
14877;DHT22;69691;48.172;17.070;2023-05-07T11:42:03;22.30;51.00
14877;DHT22;69691;48.172;17.070;2023-05-07T11:44:45;22.30;50.80
14877;DHT22;69691;48.172;17.070;2023-05-07T11:47:16;22.30;50.80
14877;DHT22;69691;48.172;17.070;2023-05-07T11:49:42;22.30;51.20
14877;DHT22;69691;48.172;17.070;2023-05-07T11:52:09;22.30;51.00
14877;DHT22;69691;48.172;17.070;2023-05-07T11:54:37;22.30;51.00
14877;DHT22;69691;48.172;17.070;2023-05-07T11:57:03;22.40;50.80
14877;DHT22;69691;48.172;17.070;2023-05-07T11:59:29;22.50;50.70
14877;DHT22;69691;48.172;17.070;2023-05-07T12:01:58;22.50;50.60
14877;DHT22;69691;48.172;17.070;2023-05-07T12:04:30;22.50;50.30
14877;DHT22;69691;48.172;17.070;2023-05-07T12:06:56;22.50;50.40
14877;DHT22;69691;48.172;17.070;2023-05-07T12:09:22;22.50;50.40
14877;DHT22;69691;48.172;17.070;2023-05-07T12:11:48;22.60;50.60
14877;DHT22;69691;48.172;17.070;2023-05-07T12:14:14;22.60;50.40
14877;DHT22;69691;48.172;17.070;2023-05-07T12:16:41;22.70;49.60
14877;DHT22;69691;48.172;17.070;2023-05-07T12:19:08;22.60;49.20
14877;DHT22;69691;48.172;17.070;2023-05-07T12:21:38;22.60;49.60
14877;DHT22;69691;48.172;17.070;2023-05-07T12:24:05;22.60;49.60
14877;DHT22;69691;48.172;17.070;2023-05-07T12:26:31;22.70;49.30
14877;DHT22;69691;48.172;17.070;2023-05-07T12:28:59;22.70;49.50
14877;DHT22;69691;48.172;17.070;2023-05-07T12:31:26;22.70;49.50
14877;DHT22;69691;48.172;17.070;2023-05-07T12:33:52;22.60;49.50
14877;DHT22;69691;48.172;17.070;2023-05-07T12:36:18;22.70;49.60
14877;DHT22;69691;48.172;17.070;2023-05-07T12:38:44;22.70;49.40
14877;DHT22;69691;48.172;17.070;2023-05-07T12:41:10;22.70;49.00
14877;DHT22;69691;48.172;17.070;2023-05-07T12:43:38;22.60;48.90
14877;DHT22;69691;48.172;17.070;2023-05-07T12:46:06;22.60;48.70
14877;DHT22;69691;48.172;17.070;2023-05-07T12:48:33;22.60;48.70
14877;DHT22;69691;48.172;17.070;2023-05-07T12:51:00;22.60;48.70
14877;DHT22;69691;48.172;17.070;2023-05-07T12:53:30;22.40;49.20
14877;DHT22;69691;48.172;17.070;2023-05-07T12:55:58;22.40;48.80
14877;DHT22;69691;48.172;17.070;2023-05-07T12:58:30;22.30;48.90
14877;DHT22;69691;48.172;17.070;2023-05-07T13:01:00;22.40;48.90
14877;DHT22;69691;48.172;17.070;2023-05-07T13:03:31;22.40;49.00
14877;DHT22;69691;48.172;17.070;2023-05-07T13:06:04;22.40;48.60
14877;DHT22;69691;48.172;17.070;2023-05-07T13:08:33;22.20;49.00
14877;DHT22;69691;48.172;17.070;2023-05-07T13:11:07;22.20;48.80
14877;DHT22;69691;48.172;17.070;2023-05-07T13:13:35;22.10;48.90
14877;DHT22;69691;48.172;17.070;2023-05-07T13:16:02;22.00;49.00
14877;DHT22;69691;48.172;17.070;2023-05-07T13:18:32;21.90;49.10
14877;DHT22;69691;48.172;17.070;2023-05-07T13:20:59;21.90;49.50
14877;DHT22;69691;48.172;17.070;2023-05-07T13:23:26;21.90;49.40
14877;DHT22;69691;48.172;17.070;2023-05-07T13:25:53;21.90;49.50
14877;DHT22;69691;48.172;17.070;2023-05-07T13:28:23;21.90;49.70
14877;DHT22;69691;48.172;17.070;2023-05-07T13:30:50;21.90;49.50
14877;DHT22;69691;48.172;17.070;2023-05-07T13:33:20;22.00;49.50
14877;DHT22;69691;48.172;17.070;2023-05-07T13:35:45;22.00;49.30
14877;DHT22;69691;48.172;17.070;2023-05-07T13:38:11;22.00;48.90
14877;DHT22;69691;48.172;17.070;2023-05-07T13:40:37;21.90;49.00
14877;DHT22;69691;48.172;17.070;2023-05-07T13:43:03;21.70;49.30
14877;DHT22;69691;48.172;17.070;2023-05-07T13:45:29;21.60;49.60
14877;DHT22;69691;48.172;17.070;2023-05-07T13:47:56;21.70;49.80
14877;DHT22;69691;48.172;17.070;2023-05-07T13:50:22;21.70;49.40
14877;DHT22;69691;48.172;17.070;2023-05-07T13:52:48;21.60;49.30
14877;DHT22;69691;48.172;17.070;2023-05-07T13:55:21;21.60;49.80
14877;DHT22;69691;48.172;17.070;2023-05-07T13:57:57;21.70;49.40
14877;DHT22;69691;48.172;17.070;2023-05-07T14:00:25;21.70;49.10
14877;DHT22;69691;48.172;17.070;2023-05-07T14:02:53;21.50;48.90
14877;DHT22;69691;48.172;17.070;2023-05-07T14:05:20;21.50;49.10
14877;DHT22;69691;48.172;17.070;2023-05-07T14:07:49;21.50;49.30
14877;DHT22;69691;48.172;17.070;2023-05-07T14:10:18;21.50;49.10
14877;DHT22;69691;48.172;17.070;2023-05-07T14:12:45;21.60;48.90
14877;DHT22;69691;48.172;17.070;2023-05-07T14:15:13;21.60;48.70
14877;DHT22;69691;48.172;17.070;2023-05-07T14:17:39;21.60;48.50
14877;DHT22;69691;48.172;17.070;2023-05-07T14:20:05;21.60;48.40
14877;DHT22;69691;48.172;17.070;2023-05-07T14:22:32;21.60;48.70
14877;DHT22;69691;48.172;17.070;2023-05-07T14:24:58;21.50;48.10
14877;DHT22;69691;48.172;17.070;2023-05-07T14:27:24;21.40;48.00
14877;DHT22;69691;48.172;17.070;2023-05-07T14:29:49;21.40;48.30
14877;DHT22;69691;48.172;17.070;2023-05-07T14:32:19;21.30;48.50
14877;DHT22;69691;48.172;17.070;2023-05-07T14:34:46;21.30;48.60
14877;DHT22;69691;48.172;17.070;2023-05-07T14:37:12;21.30;48.60
14877;DHT22;69691;48.172;17.070;2023-05-07T14:39:38;21.30;48.90
14877;DHT22;69691;48.172;17.070;2023-05-07T14:42:04;21.30;49.00
14877;DHT22;69691;48.172;17.070;2023-05-07T14:44:30;21.30;48.90
14877;DHT22;69691;48.172;17.070;2023-05-07T14:46:56;21.20;48.80
14877;DHT22;69691;48.172;17.070;2023-05-07T14:49:22;21.20;48.90
14877;DHT22;69691;48.172;17.070;2023-05-07T14:51:49;21.20;48.90
14877;DHT22;69691;48.172;17.070;2023-05-07T14:54:15;21.00;48.70
14877;DHT22;69691;48.172;17.070;2023-05-07T14:56:41;20.90;48.90
14877;DHT22;69691;48.172;17.070;2023-05-07T14:59:08;20.80;49.00
14877;DHT22;69691;48.172;17.070;2023-05-07T15:01:35;20.70;49.00
14877;DHT22;69691;48.172;17.070;2023-05-07T15:04:03;20.70;49.00
14877;DHT22;69691;48.172;17.070;2023-05-07T15:06:30;20.70;49.30
14877;DHT22;69691;48.172;17.070;2023-05-07T15:08:56;20.80;49.30
14877;DHT22;69691;48.172;17.070;2023-05-07T15:11:22;20.80;49.10
14877;DHT22;69691;48.172;17.070;2023-05-07T15:13:49;20.80;49.10
14877;DHT22;69691;48.172;17.070;2023-05-07T15:16:15;20.70;49.20
14877;DHT22;69691;48.172;17.070;2023-05-07T15:18:42;20.70;49.40
14877;DHT22;69691;48.172;17.070;2023-05-07T15:21:08;20.70;49.30
14877;DHT22;69691;48.172;17.070;2023-05-07T15:23:35;20.80;49.30